Time;durP1;ratioP1;P1;durP2;ratioP2;P2;SDS_P1;SDS_P2;PMS_P1;PMS_P2;Temp;Humidity;BMP_temperature;BMP_pressure;BME280_temperature;BME280_humidity;BME280_pressure;Samples;Min_cycle;Max_cycle;Signal;HPM_P1;HPM_P2
2019/10/10 00:01:41;;;;;;;2.2;0.9;;;;;;;10.15;95.2373;958.3819;;;;
2019/10/10 00:04:06;;;;;;;1.4;0.8;;;;;;;10.16;95.60938;958.3869;;;;
2019/10/10 00:06:31;;;;;;;2.7;0.8;;;;;;;10.2;94.74121;958.473;;;;
2019/10/10 00:08:56;;;;;;;3.3;0.8;;;;;;;10.18;94.12793;958.3906;;;;
2019/10/10 00:11:21;;;;;;;2.7;0.8;;;;;;;10.21;94.04395;958.4124;;;;
2019/10/10 00:13:47;;;;;;;1.8;0.8;;;;;;;10.24;94.11816;958.3942;;;;
2019/10/10 00:16:12;;;;;;;2.6;1;;;;;;;10.2;94.40723;958.3867;;;;
2019/10/10 00:18:37;;;;;;;3.2;1;;;;;;;10.22;93.71191;958.3644;;;;
2019/10/10 00:21:02;;;;;;;1.8;0.7;;;;;;;10.23;93.50684;958.3566;;;;
2019/10/10 00:23:27;;;;;;;2.7;0.8;;;;;;;10.26;94.07813;958.3669;;;;
2019/10/10 00:25:52;;;;;;;3.5;0.9;;;;;;;10.27;95.13867;958.4252;;;;
2019/10/10 00:28:24;;;;;;;2;0.7;;;;;;;10.19;94.07422;958.3728;;;;
2019/10/10 00:30:43;;;;;;;2;0.8;;;;;;;10.2;94.53613;958.3797;;;;
2019/10/10 00:33:08;;;;;;;1.1;0.7;;;;;;;10.17;95.20898;958.4109;;;;
2019/10/10 00:35:33;;;;;;;2.2;0.9;;;;;;;10.22;94.82715;958.4849;;;;
2019/10/10 00:37:58;;;;;;;1.8;0.7;;;;;;;10.18;93.62402;958.4933;;;;
2019/10/10 00:40:23;;;;;;;1.8;0.6;;;;;;;10.1;93.54688;958.3987;;;;
2019/10/10 00:42:49;;;;;;;1.6;0.8;;;;;;;10.12;94.05859;958.4367;;;;
2019/10/10 00:45:14;;;;;;;2.2;0.7;;;;;;;10.1;93.9834;958.4492;;;;
2019/10/10 00:47:39;;;;;;;1.6;0.7;;;;;;;10.06;94.27441;958.3794;;;;
2019/10/10 00:50:05;;;;;;;1.6;0.8;;;;;;;10.07;94.58691;958.3681;;;;
2019/10/10 00:52:30;;;;;;;1.3;0.7;;;;;;;10.06;93.71191;958.3811;;;;
2019/10/10 00:54:55;;;;;;;2.3;0.9;;;;;;;10.01;93.91992;958.3564;;;;
2019/10/10 00:57:20;;;;;;;1.2;0.6;;;;;;;10.01;93.78223;958.4166;;;;
2019/10/10 00:59:45;;;;;;;2.1;0.6;;;;;;;10.03;94.87988;958.3781;;;;
2019/10/10 01:02:10;;;;;;;2.5;0.8;;;;;;;9.98;94.28223;958.3981;;;;
2019/10/10 01:04:35;;;;;;;1.4;0.7;;;;;;;9.98;94.58105;958.4364;;;;
2019/10/10 01:07:00;;;;;;;1.7;0.7;;;;;;;9.96;94.23047;958.3895;;;;
2019/10/10 01:09:25;;;;;;;2.4;0.7;;;;;;;9.96;93.49512;958.4978;;;;
2019/10/10 01:11:50;;;;;;;3;0.7;;;;;;;9.93;94.43164;958.5045;;;;
2019/10/10 01:14:15;;;;;;;3.6;0.9;;;;;;;9.99;93.59277;958.5101;;;;
2019/10/10 01:16:40;;;;;;;2.2;0.8;;;;;;;10.08;95.51074;958.5623;;;;
2019/10/10 01:19:06;;;;;;;1.9;0.7;;;;;;;10.21;93.88281;958.6558;;;;
2019/10/10 01:21:31;;;;;;;4.4;0.9;;;;;;;10.22;93.18262;958.6884;;;;
2019/10/10 01:23:56;;;;;;;1.5;0.6;;;;;;;10.11;92.95117;958.731;;;;
2019/10/10 01:26:21;;;;;;;1.9;0.7;;;;;;;10.13;93.10645;958.8497;;;;
2019/10/10 01:28:46;;;;;;;1.7;0.7;;;;;;;10.15;93.91699;958.8973;;;;
2019/10/10 01:31:11;;;;;;;1.2;0.8;;;;;;;10.29;92.86523;958.9111;;;;
2019/10/10 01:33:36;;;;;;;3.4;0.9;;;;;;;10.08;95.0625;959.0142;;;;
2019/10/10 01:36:01;;;;;;;1.2;0.7;;;;;;;9.99;94.59277;958.9936;;;;
2019/10/10 01:38:26;;;;;;;2.5;0.9;;;;;;;10.04;95.5127;958.8088;;;;
2019/10/10 01:40:51;;;;;;;2.3;0.7;;;;;;;10.01;95.3457;958.809;;;;
2019/10/10 01:43:16;;;;;;;2;0.6;;;;;;;9.79;94.90332;958.9373;;;;
2019/10/10 01:45:41;;;;;;;2.1;0.8;;;;;;;9.88;97.23438;958.796;;;;
2019/10/10 01:48:06;;;;;;;1.1;0.6;;;;;;;9.88;95.98438;958.6055;;;;
2019/10/10 01:50:31;;;;;;;1.9;0.8;;;;;;;9.85;97.86035;958.7456;;;;
2019/10/10 01:52:57;;;;;;;1.8;0.8;;;;;;;9.91;98.44727;958.7281;;;;
2019/10/10 01:55:22;;;;;;;2.9;0.9;;;;;;;9.84;96.49121;958.7921;;;;
2019/10/10 01:57:47;;;;;;;1.6;0.7;;;;;;;9.8;97.37793;958.7079;;;;
2019/10/10 02:00:12;;;;;;;2.3;0.7;;;;;;;9.83;96.57031;958.5359;;;;
2019/10/10 02:02:37;;;;;;;2.9;0.8;;;;;;;9.92;93.08301;958.5443;;;;
2019/10/10 02:05:02;;;;;;;3.7;0.7;;;;;;;10;94.62891;958.5362;;;;
2019/10/10 02:07:27;;;;;;;2.3;0.7;;;;;;;9.98;93.98145;958.6456;;;;
2019/10/10 02:09:54;;;;;;;1.8;0.7;;;;;;;10.02;94.49512;958.5844;;;;
2019/10/10 02:12:18;;;;;;;1.7;0.8;;;;;;;9.96;93.73633;958.5559;;;;
2019/10/10 02:14:43;;;;;;;2.4;0.9;;;;;;;9.98;93.7998;958.5764;;;;
2019/10/10 02:17:08;;;;;;;2.9;0.9;;;;;;;9.96;93.26465;958.5661;;;;
2019/10/10 02:19:33;;;;;;;3.2;0.8;;;;;;;9.98;92.66113;958.5561;;;;
2019/10/10 02:21:58;;;;;;;2.8;0.8;;;;;;;10.01;91.87402;958.5225;;;;
2019/10/10 02:24:24;;;;;;;2.3;0.9;;;;;;;10.05;92.35352;958.5861;;;;
2019/10/10 02:26:49;;;;;;;5.1;0.7;;;;;;;10.04;91.33984;958.5475;;;;
2019/10/10 02:29:14;;;;;;;2.9;0.9;;;;;;;10.05;90.25;958.4852;;;;
2019/10/10 02:31:39;;;;;;;2.6;0.7;;;;;;;10.1;92.1582;958.4753;;;;
2019/10/10 02:34:04;;;;;;;1.9;0.7;;;;;;;10.12;91.32227;958.4986;;;;
2019/10/10 02:36:29;;;;;;;3.7;0.8;;;;;;;10.1;91.86816;958.5331;;;;
2019/10/10 02:38:55;;;;;;;2.5;0.8;;;;;;;10.11;91.0332;958.5951;;;;
2019/10/10 02:41:20;;;;;;;3.3;1;;;;;;;10.09;91.16699;958.6194;;;;
2019/10/10 02:43:45;;;;;;;3.1;0.9;;;;;;;10.11;92.27441;958.6548;;;;
2019/10/10 02:46:10;;;;;;;3.2;0.8;;;;;;;10.1;91.46582;958.6194;;;;
2019/10/10 02:48:35;;;;;;;3.6;0.9;;;;;;;10.1;92.22656;958.5584;;;;
2019/10/10 02:51:00;;;;;;;2.4;0.8;;;;;;;10.13;91.88965;958.6542;;;;
2019/10/10 02:53:25;;;;;;;4.3;1.4;;;;;;;10.09;92.43164;958.704;;;;
2019/10/10 02:55:50;;;;;;;3.7;0.9;;;;;;;10.08;93.49902;958.7023;;;;
2019/10/10 03:03:07;;;;;;;3.1;0.7;;;;;;;10.02;93.11719;958.7239;;;;
2019/10/10 03:05:44;;;;;;;4.7;1;;;;;;;9.92;93.50781;958.6322;;;;
2019/10/10 03:08:09;;;;;;;2.3;0.7;;;;;;;9.85;93.98828;958.6423;;;;
2019/10/10 03:10:34;;;;;;;3.2;0.8;;;;;;;9.91;94.21875;958.6125;;;;
2019/10/10 03:12:59;;;;;;;4;0.9;;;;;;;9.85;94.56348;958.5666;;;;
2019/10/10 03:15:24;;;;;;;3.7;0.8;;;;;;;9.78;95.82227;958.6752;;;;
2019/10/10 03:17:49;;;;;;;3.9;0.9;;;;;;;9.8;95.0127;958.6616;;;;
2019/10/10 03:20:14;;;;;;;3.3;0.9;;;;;;;9.86;95.57617;958.6383;;;;
2019/10/10 03:22:39;;;;;;;3.4;0.9;;;;;;;9.85;95.0918;958.5577;;;;
2019/10/10 03:25:04;;;;;;;2.7;0.9;;;;;;;9.92;94.71484;958.6078;;;;
2019/10/10 03:27:29;;;;;;;3.5;0.8;;;;;;;9.91;94.50781;958.6273;;;;
2019/10/10 03:29:55;;;;;;;2.1;0.9;;;;;;;9.83;95.40918;958.6841;;;;
2019/10/10 03:32:20;;;;;;;3.9;1.1;;;;;;;9.77;95.34961;958.7024;;;;
2019/10/10 03:34:45;;;;;;;4;0.9;;;;;;;9.81;95.66992;958.7629;;;;
2019/10/10 03:37:10;;;;;;;4;0.9;;;;;;;9.84;95.37695;958.7383;;;;
2019/10/10 03:39:35;;;;;;;3.1;0.8;;;;;;;9.83;95.77734;958.6523;;;;
2019/10/10 03:42:00;;;;;;;5;1;;;;;;;9.76;95.60938;958.625;;;;
2019/10/10 03:44:25;;;;;;;4.1;1;;;;;;;9.84;95.52441;958.5873;;;;
2019/10/10 03:46:50;;;;;;;3.6;1;;;;;;;9.87;96.27734;958.5408;;;;
2019/10/10 03:49:16;;;;;;;3.4;0.8;;;;;;;9.78;95.12207;958.6113;;;;
2019/10/10 03:51:41;;;;;;;2.7;0.9;;;;;;;9.85;96.19434;958.6627;;;;
2019/10/10 03:54:06;;;;;;;2.7;0.9;;;;;;;9.86;95.54199;958.5976;;;;
2019/10/10 03:56:31;;;;;;;4.7;1;;;;;;;9.91;95.79297;958.5181;;;;
2019/10/10 03:58:57;;;;;;;5.8;1.4;;;;;;;9.88;95.31543;958.5037;;;;
2019/10/10 04:02:27;;;;;;;2.6;0.9;;;;;;;9.97;96.67871;958.4916;;;;
2019/10/10 04:04:52;;;;;;;4;1;;;;;;;9.95;95.86035;958.5009;;;;
2019/10/10 04:07:17;;;;;;;3.1;1;;;;;;;9.91;95.43652;958.5377;;;;
2019/10/10 04:09:42;;;;;;;3.7;1;;;;;;;9.94;95.9043;958.4601;;;;
2019/10/10 04:12:07;;;;;;;5.9;1.1;;;;;;;9.99;95.00781;958.4442;;;;
2019/10/10 04:14:32;;;;;;;3.5;0.9;;;;;;;10.01;94.70215;958.4476;;;;
2019/10/10 04:16:57;;;;;;;2.8;0.9;;;;;;;10.01;95.10449;958.4785;;;;
2019/10/10 04:19:23;;;;;;;3;1.2;;;;;;;10.01;95.43555;958.4125;;;;
2019/10/10 04:21:48;;;;;;;2.8;1.1;;;;;;;10.06;95.67773;958.421;;;;
2019/10/10 04:24:13;;;;;;;2.7;1;;;;;;;10.13;95.14355;958.4442;;;;
2019/10/10 04:26:38;;;;;;;4.2;0.9;;;;;;;10.09;94.31738;958.4288;;;;
2019/10/10 04:29:03;;;;;;;3.2;1;;;;;;;10.13;94.37305;958.4719;;;;
2019/10/10 04:31:28;;;;;;;4;1.1;;;;;;;10.11;93.6543;958.4171;;;;
2019/10/10 04:33:53;;;;;;;2.8;0.9;;;;;;;10.18;93.2998;958.4916;;;;
2019/10/10 04:36:18;;;;;;;3.6;0.8;;;;;;;10.18;92.98926;958.4769;;;;
2019/10/10 04:38:43;;;;;;;2.6;1.1;;;;;;;10.24;93.15234;958.4462;;;;
2019/10/10 04:41:08;;;;;;;4.2;0.9;;;;;;;10.23;93.43652;958.4654;;;;
2019/10/10 04:43:33;;;;;;;3.3;1.1;;;;;;;10.23;93.80371;958.4849;;;;
2019/10/10 04:45:59;;;;;;;3.1;0.9;;;;;;;10.22;93.0332;958.5581;;;;
2019/10/10 04:48:24;;;;;;;4.5;1.1;;;;;;;10.29;92.2666;958.5711;;;;
2019/10/10 04:50:49;;;;;;;5.9;1.1;;;;;;;10.29;93.20996;958.5731;;;;
2019/10/10 04:53:14;;;;;;;2.9;0.9;;;;;;;10.29;93.30176;958.5682;;;;
2019/10/10 04:55:39;;;;;;;3.8;1.2;;;;;;;10.31;93.79883;958.4991;;;;
2019/10/10 04:58:04;;;;;;;2.8;0.9;;;;;;;10.32;92.71191;958.462;;;;
2019/10/10 05:00:29;;;;;;;4.9;1.1;;;;;;;10.31;92.35156;958.4681;;;;
2019/10/10 05:02:54;;;;;;;4;1;;;;;;;10.37;93.07813;958.4383;;;;
2019/10/10 05:05:19;;;;;;;4.4;1.1;;;;;;;10.29;92.19824;958.5189;;;;
2019/10/10 05:07:44;;;;;;;3.6;1.1;;;;;;;10.22;92.71191;958.4645;;;;
2019/10/10 05:10:09;;;;;;;3.1;1;;;;;;;10.16;92.9873;958.5098;;;;
2019/10/10 05:12:34;;;;;;;4;1.2;;;;;;;10.23;93.49316;958.4475;;;;
2019/10/10 05:15:00;;;;;;;4.1;1.1;;;;;;;10.22;93.12598;958.4483;;;;
2019/10/10 05:17:25;;;;;;;3.5;1;;;;;;;10.17;93.24023;958.5123;;;;
2019/10/10 05:19:50;;;;;;;4.7;1.2;;;;;;;10.18;93.98047;958.5144;;;;
2019/10/10 05:22:15;;;;;;;4.3;1.2;;;;;;;10.11;93.04297;958.5633;;;;
2019/10/10 05:24:40;;;;;;;2.6;1;;;;;;;10.18;92.63281;958.6454;;;;
2019/10/10 05:27:05;;;;;;;2.5;1;;;;;;;10.11;92.76855;958.6472;;;;
2019/10/10 05:29:30;;;;;;;3.9;1.1;;;;;;;10.1;92.55859;958.6145;;;;
2019/10/10 05:31:55;;;;;;;3.7;1.1;;;;;;;10.05;93.26172;958.5341;;;;
2019/10/10 05:34:21;;;;;;;2.9;1.1;;;;;;;10.1;92.54688;958.5364;;;;
2019/10/10 05:36:46;;;;;;;4.8;1.1;;;;;;;10.13;93.40527;958.4856;;;;
2019/10/10 05:39:11;;;;;;;3.4;1.2;;;;;;;10.14;91.95996;958.5244;;;;
2019/10/10 05:41:36;;;;;;;4.7;1;;;;;;;10.14;92.00488;958.546;;;;
2019/10/10 05:44:01;;;;;;;5.5;1.4;;;;;;;10.1;92.04297;958.5144;;;;
2019/10/10 05:46:26;;;;;;;5.2;1.3;;;;;;;10.11;91.97363;958.5927;;;;
2019/10/10 05:48:51;;;;;;;5.3;1.2;;;;;;;10.1;91.83594;958.6317;;;;
2019/10/10 05:51:16;;;;;;;4.5;1.3;;;;;;;10.16;91.69922;958.623;;;;
2019/10/10 05:53:41;;;;;;;4.5;1.2;;;;;;;10.19;92.11914;958.565;;;;
2019/10/10 05:56:06;;;;;;;5.1;1.3;;;;;;;10.14;92.0293;958.6115;;;;
2019/10/10 05:58:31;;;;;;;4.2;1.4;;;;;;;10.15;92.82422;958.5945;;;;
2019/10/10 06:00:57;;;;;;;3.5;1.2;;;;;;;10.09;92.40723;958.6299;;;;
2019/10/10 06:03:22;;;;;;;4.5;1.1;;;;;;;10.14;91.61328;958.6852;;;;
2019/10/10 06:05:47;;;;;;;4.4;1.1;;;;;;;10.14;91.72852;958.8155;;;;
2019/10/10 06:08:12;;;;;;;3.6;1.2;;;;;;;10.21;90.43262;958.8497;;;;
2019/10/10 06:10:37;;;;;;;4.2;1;;;;;;;10.18;90.28906;958.9045;;;;
2019/10/10 06:13:02;;;;;;;7.2;1.2;;;;;;;10.26;91.18945;958.9587;;;;
2019/10/10 06:15:27;;;;;;;5.2;1.2;;;;;;;10.27;89.93945;958.9309;;;;
2019/10/10 06:17:52;;;;;;;4.8;1.3;;;;;;;10.28;89.2959;958.988;;;;
2019/10/10 06:20:17;;;;;;;4.4;1.1;;;;;;;10.35;90.78516;959.0287;;;;
2019/10/10 06:22:42;;;;;;;5;1.2;;;;;;;10.35;89.54199;959.0499;;;;
2019/10/10 06:25:17;;;;;;;4.2;1.3;;;;;;;10.37;89.26855;959.0442;;;;
2019/10/10 06:27:42;;;;;;;6.1;1.4;;;;;;;10.44;88.9834;959.0739;;;;
2019/10/10 06:30:07;;;;;;;7.2;1.4;;;;;;;10.5;87.8252;959.1325;;;;
2019/10/10 06:32:32;;;;;;;5.2;1.4;;;;;;;10.55;88.29395;959.1331;;;;
2019/10/10 06:34:57;;;;;;;6.4;1.4;;;;;;;10.57;87.65332;959.1043;;;;
2019/10/10 06:37:22;;;;;;;4.9;1.4;;;;;;;10.6;87.31543;959.1317;;;;
2019/10/10 06:39:47;;;;;;;3.8;1.2;;;;;;;10.63;88.17285;959.0776;;;;
2019/10/10 06:42:13;;;;;;;4.6;1.2;;;;;;;10.65;87.16309;959.1124;;;;
2019/10/10 06:44:38;;;;;;;4.7;1.1;;;;;;;10.73;86.61523;959.0801;;;;
2019/10/10 06:47:03;;;;;;;4.5;1.2;;;;;;;10.73;85.75195;959.1592;;;;
2019/10/10 06:49:28;;;;;;;5.6;1.2;;;;;;;10.77;85.5752;959.2294;;;;
2019/10/10 06:51:53;;;;;;;5.4;1.3;;;;;;;10.8;85.68555;959.1492;;;;
2019/10/10 06:54:18;;;;;;;5.8;1.2;;;;;;;10.8;84.6377;959.2593;;;;
2019/10/10 06:56:43;;;;;;;3.8;1.2;;;;;;;10.83;84.58691;959.2639;;;;
2019/10/10 06:59:08;;;;;;;5.9;1.3;;;;;;;10.81;83.50879;959.2381;;;;
2019/10/10 07:01:33;;;;;;;5.3;1.4;;;;;;;10.91;84.56445;959.2863;;;;
2019/10/10 07:03:59;;;;;;;4;1.2;;;;;;;10.87;83.29102;959.3084;;;;
2019/10/10 07:06:24;;;;;;;5.9;1.4;;;;;;;10.85;84.07031;959.3195;;;;
2019/10/10 07:08:49;;;;;;;3.6;1.2;;;;;;;10.92;84.71777;959.2825;;;;
2019/10/10 07:11:14;;;;;;;4.7;1.4;;;;;;;10.96;82.75684;959.2562;;;;
2019/10/10 07:13:39;;;;;;;5.8;1.3;;;;;;;11.04;83.15234;959.2781;;;;
2019/10/10 07:16:04;;;;;;;5.4;1.3;;;;;;;11.07;82.65039;959.2407;;;;
2019/10/10 07:18:29;;;;;;;4.1;1.1;;;;;;;11.18;81.63574;959.3267;;;;
2019/10/10 07:20:54;;;;;;;4.5;1.3;;;;;;;11.25;81.7168;959.2277;;;;
2019/10/10 07:23:19;;;;;;;5.5;1.4;;;;;;;11.27;81.54688;959.2162;;;;
2019/10/10 07:25:44;;;;;;;4.7;1.1;;;;;;;11.34;81.69922;959.3323;;;;
2019/10/10 07:28:09;;;;;;;5.8;1.4;;;;;;;11.27;82.05566;959.2938;;;;
2019/10/10 07:30:35;;;;;;;6.4;1.2;;;;;;;11.38;82.15527;959.4498;;;;
2019/10/10 07:33:00;;;;;;;4.1;1.2;;;;;;;11.32;81.55566;959.4897;;;;
2019/10/10 07:35:25;;;;;;;5.9;1.2;;;;;;;11.36;81.27734;959.4796;;;;
2019/10/10 07:37:50;;;;;;;4.1;1.2;;;;;;;11.37;80.36621;959.4356;;;;
2019/10/10 07:40:15;;;;;;;5.5;1.3;;;;;;;11.36;82.07129;959.6019;;;;
2019/10/10 07:42:46;;;;;;;4;1.3;;;;;;;11.43;80.19531;959.6074;;;;
2019/10/10 07:45:05;;;;;;;6;1.4;;;;;;;11.44;80.53125;959.702;;;;
2019/10/10 07:47:30;;;;;;;4.6;1.2;;;;;;;11.39;79.97754;959.7101;;;;
2019/10/10 07:49:55;;;;;;;4.8;1.4;;;;;;;11.41;79.94824;959.6951;;;;
2019/10/10 07:52:20;;;;;;;5.1;1.5;;;;;;;11.45;78.88184;959.6409;;;;
2019/10/10 07:54:45;;;;;;;4.2;1.3;;;;;;;11.54;78.83105;959.7371;;;;
2019/10/10 07:57:11;;;;;;;6.2;1.4;;;;;;;11.52;78.82617;959.9189;;;;
2019/10/10 07:59:37;;;;;;;4.3;1.4;;;;;;;11.52;79.08105;959.8969;;;;
2019/10/10 08:02:01;;;;;;;5.6;1.3;;;;;;;11.57;79.38965;960.1064;;;;
2019/10/10 08:04:26;;;;;;;5.9;1.4;;;;;;;11.6;79.07129;959.9722;;;;
2019/10/10 08:06:52;;;;;;;5;1.1;;;;;;;11.55;79.89355;959.9756;;;;
2019/10/10 08:09:17;;;;;;;5.7;1.4;;;;;;;11.53;81.09961;960.0723;;;;
2019/10/10 08:11:42;;;;;;;5.5;2.3;;;;;;;11.57;82.88477;959.9847;;;;
2019/10/10 08:14:07;;;;;;;4.7;1.5;;;;;;;11.52;82.80664;960.0055;;;;
2019/10/10 08:16:32;;;;;;;7.5;2.5;;;;;;;11.52;81.6416;959.9924;;;;
2019/10/10 08:18:58;;;;;;;6.2;1.2;;;;;;;11.48;82.69336;959.9915;;;;
2019/10/10 08:21:23;;;;;;;6.6;1.5;;;;;;;11.48;81.24121;960.0446;;;;
2019/10/10 08:23:48;;;;;;;3.9;1.4;;;;;;;11.49;81.67969;960.0048;;;;
2019/10/10 08:26:13;;;;;;;4.4;1.5;;;;;;;11.52;81.13477;960.1131;;;;
2019/10/10 08:28:38;;;;;;;4.8;1.4;;;;;;;11.54;80.4209;960.0651;;;;
2019/10/10 08:31:03;;;;;;;4.6;1.4;;;;;;;11.65;80.80078;960.1526;;;;
2019/10/10 08:33:28;;;;;;;5.7;1.4;;;;;;;11.57;82.82715;960.2402;;;;
2019/10/10 08:35:54;;;;;;;5.7;1.5;;;;;;;11.36;85.24219;960.3322;;;;
2019/10/10 08:38:19;;;;;;;5.6;1.3;;;;;;;11.24;87.87012;960.3041;;;;
2019/10/10 08:40:44;;;;;;;5.8;1.7;;;;;;;11.22;89.4209;960.3602;;;;
2019/10/10 08:43:10;;;;;;;4.4;1.3;;;;;;;11.19;90.2793;960.3858;;;;
2019/10/10 08:45:35;;;;;;;3.8;1.3;;;;;;;11.14;88.45898;960.4981;;;;
2019/10/10 08:48:00;;;;;;;5.7;1.5;;;;;;;11.17;89.48242;960.6961;;;;
2019/10/10 08:50:25;;;;;;;5;1.5;;;;;;;11.22;90.50391;960.6266;;;;
2019/10/10 08:52:50;;;;;;;6;1.7;;;;;;;11.29;89.50684;960.6077;;;;
2019/10/10 08:55:15;;;;;;;5.1;1.3;;;;;;;11.38;89.38477;960.6255;;;;
2019/10/10 08:57:40;;;;;;;4.8;1.4;;;;;;;11.48;89.02441;960.7014;;;;
2019/10/10 09:00:05;;;;;;;4.6;1.4;;;;;;;11.53;87.49023;960.8314;;;;
2019/10/10 09:02:31;;;;;;;6.2;1.5;;;;;;;11.5;85.28125;960.8267;;;;
2019/10/10 09:04:56;;;;;;;5.9;1.4;;;;;;;11.58;87.44336;960.7458;;;;
2019/10/10 09:07:21;;;;;;;4.2;1.2;;;;;;;11.62;86.54102;960.7497;;;;
2019/10/10 09:09:46;;;;;;;6;1.3;;;;;;;11.73;85.00488;960.6871;;;;
2019/10/10 09:12:18;;;;;;;4.1;1.2;;;;;;;11.78;84.88672;960.8011;;;;
2019/10/10 09:14:36;;;;;;;3.6;1.2;;;;;;;12.02;85.51074;960.7922;;;;
2019/10/10 09:17:02;;;;;;;5.2;1.2;;;;;;;12.1;83.2627;960.6987;;;;
2019/10/10 09:19:27;;;;;;;4.3;1.3;;;;;;;12.12;83.44141;960.758;;;;
2019/10/10 09:21:52;;;;;;;3.6;1.2;;;;;;;11.99;82.68848;960.8939;;;;
2019/10/10 09:24:17;;;;;;;3.5;1.2;;;;;;;12.13;82.125;960.8937;;;;
2019/10/10 09:26:42;;;;;;;4.4;1.3;;;;;;;12.12;81.37207;960.9515;;;;
2019/10/10 09:29:07;;;;;;;3.1;1.1;;;;;;;12.06;80.75977;960.9711;;;;
2019/10/10 09:31:32;;;;;;;3.6;1;;;;;;;11.97;79.83301;960.9689;;;;
2019/10/10 09:33:57;;;;;;;4.5;1.1;;;;;;;12.05;81.56641;960.863;;;;
2019/10/10 09:36:22;;;;;;;3.8;1.1;;;;;;;12.04;80.71191;960.8555;;;;
2019/10/10 09:38:48;;;;;;;4.3;1.2;;;;;;;12.05;79.71875;960.9683;;;;
2019/10/10 09:41:13;;;;;;;5.8;1.3;;;;;;;11.93;80.15723;960.9067;;;;
2019/10/10 09:43:38;;;;;;;4.5;1;;;;;;;11.9;79.30957;960.9219;;;;
2019/10/10 09:46:03;;;;;;;3.4;1;;;;;;;11.96;81.45898;961.0159;;;;
2019/10/10 09:48:28;;;;;;;3.3;0.9;;;;;;;11.97;79.50781;961.0032;;;;
2019/10/10 09:50:53;;;;;;;2.9;1.3;;;;;;;12.05;78.36914;960.9659;;;;
2019/10/10 09:53:18;;;;;;;5.2;1.2;;;;;;;12.01;77.81836;961.0176;;;;
2019/10/10 09:55:43;;;;;;;3.4;1;;;;;;;12.13;78.55566;961.0692;;;;
2019/10/10 09:58:08;;;;;;;3.8;1;;;;;;;12.08;78.62793;961.1583;;;;
2019/10/10 10:00:34;;;;;;;3.6;1;;;;;;;12.17;78.5752;961.0796;;;;
2019/10/10 10:02:59;;;;;;;3.2;1.1;;;;;;;12.27;77.04297;961.1827;;;;
2019/10/10 10:05:24;;;;;;;2.3;0.8;;;;;;;12.28;77.9707;961.1876;;;;
2019/10/10 10:08:06;;;;;;;2.8;0.9;;;;;;;12.21;77.3457;961.2291;;;;
2019/10/10 10:10:14;;;;;;;3.2;1;;;;;;;12.25;76.50977;961.2427;;;;
2019/10/10 10:12:39;;;;;;;2.4;0.9;;;;;;;12.2;77.71387;961.2313;;;;
2019/10/10 10:15:04;;;;;;;2.3;0.9;;;;;;;12.26;75.66699;961.1447;;;;
2019/10/10 10:17:29;;;;;;;3.7;1;;;;;;;12.17;76.44922;961.2356;;;;
2019/10/10 10:19:56;;;;;;;2;0.8;;;;;;;12.22;77.07129;961.2971;;;;
2019/10/10 10:22:20;;;;;;;2.7;1.4;;;;;;;12.32;75.41211;961.3326;;;;
2019/10/10 10:24:45;;;;;;;3;1.1;;;;;;;12.48;73.60352;961.3876;;;;
2019/10/10 10:27:11;;;;;;;2.2;0.9;;;;;;;12.66;73.52832;961.4506;;;;
2019/10/10 10:29:36;;;;;;;2;0.7;;;;;;;12.81;73.50781;961.4944;;;;
2019/10/10 10:32:01;;;;;;;2.1;0.7;;;;;;;12.96;71.48535;961.426;;;;
2019/10/10 10:34:26;;;;;;;1.3;0.6;;;;;;;12.83;72.53906;961.4511;;;;
2019/10/10 10:36:51;;;;;;;3.6;0.8;;;;;;;12.85;71.67578;961.4311;;;;
2019/10/10 10:39:16;;;;;;;2.1;0.7;;;;;;;12.74;73.84375;961.4998;;;;
2019/10/10 10:41:43;;;;;;;1.5;0.6;;;;;;;12.79;73.19336;961.5734;;;;
2019/10/10 10:44:08;;;;;;;2.1;0.7;;;;;;;12.68;73.83301;961.616;;;;
2019/10/10 10:46:33;;;;;;;1.2;0.6;;;;;;;12.59;76.34863;961.6604;;;;
2019/10/10 10:48:59;;;;;;;1.9;0.6;;;;;;;12.23;78.46973;961.811;;;;
2019/10/10 10:51:25;;;;;;;1.3;0.5;;;;;;;11.85;81.32227;961.9127;;;;
2019/10/10 10:53:49;;;;;;;2.3;0.7;;;;;;;11.7;82.02246;961.6573;;;;
2019/10/10 10:56:14;;;;;;;2.1;0.6;;;;;;;11.7;82.62012;961.6042;;;;
2019/10/10 10:58:40;;;;;;;1.4;0.6;;;;;;;11.73;82.83496;961.6905;;;;
2019/10/10 11:01:04;;;;;;;5.1;1.3;;;;;;;11.6;83.30566;961.6283;;;;
2019/10/10 11:03:29;;;;;;;2.5;0.9;;;;;;;11.58;83.49805;961.6077;;;;
2019/10/10 11:05:54;;;;;;;2.2;0.9;;;;;;;11.61;83.44727;961.6116;;;;
2019/10/10 11:08:19;;;;;;;2.5;0.7;;;;;;;11.57;83.8291;961.6277;;;;
2019/10/10 11:10:44;;;;;;;2.5;0.9;;;;;;;11.68;84.2207;961.5784;;;;
2019/10/10 11:13:10;;;;;;;3;0.8;;;;;;;11.79;83.14551;961.5854;;;;
2019/10/10 11:15:35;;;;;;;2.5;0.8;;;;;;;11.95;82.13672;961.6365;;;;
2019/10/10 11:18:01;;;;;;;3;0.6;;;;;;;12.12;82.41309;961.5742;;;;
2019/10/10 11:20:27;;;;;;;2.5;0.8;;;;;;;12.07;81.10938;961.5561;;;;
2019/10/10 11:22:52;;;;;;;2.7;0.7;;;;;;;12.18;80.95703;961.491;;;;
2019/10/10 11:25:19;;;;;;;2.4;0.7;;;;;;;12.32;80.71777;961.5472;;;;
2019/10/10 11:27:42;;;;;;;1.9;0.6;;;;;;;12.3;81.47656;961.6024;;;;
2019/10/10 11:30:07;;;;;;;2.3;0.6;;;;;;;12.2;82.53125;961.605;;;;
2019/10/10 11:32:33;;;;;;;2;0.9;;;;;;;12.27;82.98242;961.5793;;;;
2019/10/10 11:34:58;;;;;;;2.8;0.7;;;;;;;12.22;84.34961;961.7383;;;;
2019/10/10 11:37:23;;;;;;;3.3;0.8;;;;;;;12.08;83.68652;961.8003;;;;
2019/10/10 11:39:49;;;;;;;1.5;0.8;;;;;;;11.95;84.51563;961.8775;;;;
2019/10/10 11:42:14;;;;;;;2;0.9;;;;;;;11.9;85.63672;961.8161;;;;
2019/10/10 11:44:40;;;;;;;1.3;0.6;;;;;;;11.71;85.8418;961.9406;;;;
2019/10/10 11:47:05;;;;;;;2.4;1;;;;;;;11.71;86.58203;961.8835;;;;
2019/10/10 11:49:30;;;;;;;1.5;0.7;;;;;;;11.88;86.30273;961.8722;;;;
